x

South Santa Rosa Is. Ca (46069) Wave Buoy

6:50 - Sun 29th May 2016 All times are PDT. -7 hours from GMT.

  • Sig Wave height 5.6ft
  • Swell Direction
  • Peak Period 9s
  • Average Period 8s
  • Wind
    9mph, 11mph gusts
  • Sea Temp 59°f
  • Luft Temp 58°f
  • Sea Pressure 1015.6mb
  • South Santa Rosa Is. Ca
  • South Santa Rosa Is. Ca

More Historic Weather Station data

Upgrade to MSW Pro to gain access to the past 30 days of data for over 8000 Wavebouys and Weather Stations around the globe.

Join Pro

Comparision Forecast

View Surf forecast
   
So 05/29 6:50 5.5ft 9s 8s 9 11 mph 1015.6mb 59f 58f
5:50 5ft 8s 8s 9 11 mph 1015.5mb 60f 58f
3:50 4.5ft 9s 8s 7 9 mph 1016.2mb 60f 58f
2:50 4.5ft 9s 8s 4 7 mph 1016.6mb 60f 58f
1:50 5ft 9s 8s 7
mph
1017mb 59f 58f
12:50 5ft 9s 8s 4 7 mph 1017.3mb 60f 58f
11:50 5.5ft 15s 8s 4 7 mph 1017.4mb 59f 58f
10:50 5ft 10s 8s 4
mph
1017.4mb 58f 58f
9:50 5ft 9s  -  2 4 mph 1017.2mb 58f 57f
8:50 6ft 10s 9s 4
mph
1016.8mb 57f 57f
7:50 6ft 10s 9s 4 7 mph 1016.4mb 57f 57f
6:50 5.5ft 10s 9s 2 4 mph 1015.8mb 57f 56f
5:50 5ft 10s 8s 7 9 mph 1015.1mb 58f 56f
4:50 5ft 10s 8s 2 4 mph 1014.6mb 58f 56f
3:50 5.5ft 10s 8s 2 7 mph 1014.6mb 58f 56f
2:50 6ft 10s 8s 2 4 mph 1014.5mb 58f 56f
1:50 6ft 10s 8s 4 7 mph 1014.4mb 58f 56f
12:50 6ft 10s 8s 4 9 mph 1014.6mb 58f 57f
Sa 05/28 11:50 6.5ft 10s 8s 2 4 mph 1014.7mb 58f 57f
10:50 6ft 10s 8s  -  2 mph 1014.6mb 58f 57f
9:50 6.5ft 11s 8s  -  2 mph 1014mb 58f 57f
8:50 7.5ft 11s 8s 2 4 mph 1013.4mb 58f 57f
7:50 8ft 10s 8s 4
mph
1012.9mb 59f 58f
6:50 8ft 10s 8s 4 7 mph 1012.3mb 59f 58f
5:50 7.5ft 10s 8s 4 7 mph 1012.1mb 60f 58f
4:50 7.5ft 10s 9s 4 9 mph 1012mb 59f 58f
3:50 6.5ft 10s 8s 2 7 mph 1012.3mb 59f 58f
2:50 6ft 11s 8s 7 9 mph 1012.7mb 59f 57f
1:50 6ft 10s 8s 7 9 mph 1012.8mb 59f 57f
12:50 6ft 10s 8s 7 9 mph 1012.9mb 58f 57f
11:50 5.5ft 10s 8s 4 9 mph 1012.9mb 58f 56f
10:50 5.5ft 10s 8s 4 9 mph 1012.7mb 58f 56f
9:50 6ft 11s 8s 4 7 mph 1012.3mb 58f 56f
8:50 6.5ft 10s 8s 4 7 mph 1012mb 58f 55f
7:50 6ft 10s 8s 2 4 mph 1011.6mb 58f 55f
6:50 7ft 11s 8s 2 4 mph 1011.1mb 58f 55f
5:50 6.5ft 10s 8s 4 7 mph 1010.6mb 58f 55f
4:50 7ft 10s 8s 4 7 mph 1010.3mb 58f 55f
3:50 6ft 11s 8s 7 9 mph 1010.1mb 58f 55f
2:50 6ft 11s 7s 7 11 mph 1010.6mb 58f 55f
12:50 7ft 10s 7s 11 13 mph 1011.2mb 58f 55f
Fr 05/27 11:50 6.5ft 10s 7s 13 16 mph 1011.5mb 58f 55f
10:50 6ft 11s 6s 18 20 mph 1011.6mb 58f 55f
9:50 6.5ft 10s 6s 20 25 mph 1011.3mb 57f 55f
8:50 7.5ft 11s 7s 18 22 mph 1011.7mb 57f 56f
7:50 6.5ft 10s 6s 20 22 mph 1011.9mb 57f 56f
6:50 8ft 11s 7s 22 25 mph 1011.5mb 57f 56f
5:50 8ft 10s 7s 20 25 mph 1011.8mb 57f 56f
4:50 7ft 10s 6s 20 22 mph 1011.8mb 57f 56f
3:50 7ft 9s 7s 20 25 mph 1012.3mb 57f 56f
2:50 7ft 10s 6s 18 22 mph 1013mb 57f 56f
1:50 7ft 9s 6s 18 22 mph 1013.4mb 57f 55f
12:50 7ft 10s 7s 18 20 mph 1013.9mb 57f 55f
11:50 7ft 9s 6s 16 20 mph 1014.4mb 57f 54f
10:50 7ft 9s 6s 18 20 mph 1014.6mb 57f 55f
9:50 7ft 10s 6s 20 25 mph 1014.6mb 57f 54f
8:50 7.5ft 9s 6s 20 22 mph 1014.9mb 57f 54f
7:50 7.5ft 8s 6s 20 25 mph 1014.9mb 57f 54f
6:50 7ft 10s 6s 22 25 mph 1014.4mb 57f 54f
5:50 7.5ft 7s 6s 25 29 mph 1013.9mb 57f 54f
4:50 8ft 7s 6s 25 31 mph 1013.6mb 57f 55f
3:50 7.5ft 8s 6s 27 34 mph 1013.7mb 57f 55f
2:50 8ft 8s 6s 27 34 mph 1014mb 57f 56f
1:50 8ft 7s 6s 27 31 mph 1014.5mb 57f 56f
12:50 7.5ft 7s 6s 25 29 mph 1015.2mb 58f 56f
Do 05/26 11:50 8ft 8s 6s 25 31 mph 1015.2mb 58f 56f
10:50 7.5ft 7s 6s 27 34 mph 1015.4mb 58f 56f
9:50 8ft 7s 6s 27 34 mph 1015.3mb 58f 56f
8:50 8ft 7s 6s 29 36 mph 1014.9mb 58f 56f
7:50 8ft 7s 6s 29 34 mph 1015.2mb 58f 56f
6:50 7ft 8s 6s 27 34 mph 1015.6mb 58f 57f
5:50 7.5ft 7s 6s 27 34 mph 1015.8mb 57f 57f
3:50 7ft 7s 5s 27 31 mph 1016.8mb 57f 57f
2:50 6.5ft 7s 5s 25 31 mph 1017.5mb 56f 57f
1:50 6ft 8s 5s 27 34 mph 1017.8mb 56f 56f
12:50 7ft 7s 5s 25 29 mph 1019mb 56f 56f
11:50 6ft 8s 5s 25 29 mph 1019.3mb 56f 56f
10:50 7ft 8s 6s 25 29 mph 1019.1mb 56f 56f
9:50 7ft 8s 5s 22 29 mph 1019.5mb 56f 56f
8:50 7ft 8s 6s 27 34 mph 1018.7mb 56f 56f
7:50 7ft 8s 5s 27 31 mph 1018.6mb 56f 56f
6:50 8ft 7s 6s 27 36 mph 1018.4mb 56f 56f
5:50 7ft 7s 6s 25 31 mph 1018.1mb 57f 56f
4:50 7ft 7s 6s 29 36 mph 1017.3mb 57f 56f
3:50 7ft 7s 6s 29 34 mph 1017.1mb 58f 56f